Time;durP1;ratioP1;P1;durP2;ratioP2;P2;SDS_P1;SDS_P2;PMS_P1;PMS_P2;Temp;Humidity;BMP_temperature;BMP_pressure;BME280_temperature;BME280_humidity;BME280_pressure;Samples;Min_cycle;Max_cycle;Signal;HPM_P1;HPM_P2
2024/01/26 00:01:28;;;;;;;;;;;;;;;16.51;41.34;100794.34;5058298;28;1131;-52
2024/01/26 00:03:54;;;;;;;;;;;;;;;16.27;41.92;100797.63;5058104;28;1004;-48
2024/01/26 00:06:19;;;;;;;;;;;;;;;17.52;39.05;100785.50;5058362;28;1072;-53
2024/01/26 00:08:45;;;;;;;;;;;;;;;16.55;41.25;100799.03;5058909;28;1028;-50
2024/01/26 00:11:17;;;;;;;;;;;;;;;16.30;41.54;100801.72;5058066;28;1976;-52
2024/01/26 00:13:42;;;;;;;;;;;;;;;15.96;42.17;100805.72;5057054;28;1071;-51
2024/01/26 00:16:08;;;;;;;;;;;;;;;17.40;39.68;100802.31;5058528;28;863;-54
2024/01/26 00:18:34;;;;;;;;;;;;;;;17.03;40.26;100800.72;5058580;28;1168;-53
2024/01/26 00:20:59;;;;;;;;;;;;;;;16.35;41.34;100808.03;5057650;28;1175;-50
2024/01/26 00:23:25;;;;;;;;;;;;;;;16.05;42.14;100795.09;5058266;28;1202;-55
2024/01/26 00:25:50;;;;;;;;;;;;;;;17.75;38.97;100808.78;5058210;28;1168;-50
2024/01/26 00:28:16;;;;;;;;;;;;;;;16.55;41.00;100811.91;5057786;28;921;-54
2024/01/26 00:30:41;;;;;;;;;;;;;;;16.20;41.93;100827.22;5058145;28;1984;-49
2024/01/26 00:33:07;;;;;;;;;;;;;;;17.40;39.51;100816.03;5036111;28;1160;-52
2024/01/26 00:35:33;;;;;;;;;;;;;;;16.71;40.95;100815.53;5058048;28;1063;-48
2024/01/26 00:37:58;;;;;;;;;;;;;;;16.20;41.92;100817.06;5054089;28;1101;-53
2024/01/26 00:40:24;;;;;;;;;;;;;;;16.08;41.84;100825.53;5058104;28;975;-53
2024/01/26 00:42:49;;;;;;;;;;;;;;;17.38;39.28;100819.06;5057468;28;1092;-54
2024/01/26 00:45:15;;;;;;;;;;;;;;;16.37;41.57;100816.03;5057433;28;1127;-53
2024/01/26 00:47:40;;;;;;;;;;;;;;;16.06;41.91;100824.97;5058009;28;1174;-55
2024/01/26 00:50:06;;;;;;;;;;;;;;;17.57;39.16;100816.56;5057869;28;1979;-56
2024/01/26 00:52:32;;;;;;;;;;;;;;;16.40;41.55;100816.28;5056946;28;973;-52
2024/01/26 00:54:58;;;;;;;;;;;;;;;16.03;42.06;100816.44;5057468;28;1102;-55
2024/01/26 00:57:23;;;;;;;;;;;;;;;16.42;41.71;100818.75;5057744;28;1147;-53
2024/01/26 00:59:49;;;;;;;;;;;;;;;17.22;39.71;100815.53;5057412;28;1107;-54
2024/01/26 01:02:14;;;;;;;;;;;;;;;16.21;41.84;100815.16;5039287;28;1074;-52
2024/01/26 01:04:40;;;;;;;;;;;;;;;15.98;42.38;100814.53;5056659;28;883;-53
2024/01/26 01:07:05;;;;;;;;;;;;;;;17.33;39.65;100810.84;5057399;28;1138;-55
2024/01/26 01:09:31;;;;;;;;;;;;;;;17.75;38.61;100815.13;5057314;28;1978;-53
2024/01/26 01:11:57;;;;;;;;;;;;;;;16.66;40.98;100813.59;5057097;28;1071;-51
2024/01/26 01:14:23;;;;;;;;;;;;;;;17.36;39.52;100815.78;5056781;28;1124;-51
2024/01/26 01:16:50;;;;;;;;;;;;;;;16.94;40.32;100800.44;5057020;28;961;-54
2024/01/26 01:19:15;;;;;;;;;;;;;;;16.36;41.54;100804.22;5057606;28;1211;-53
2024/01/26 01:21:41;;;;;;;;;;;;;;;16.07;42.03;100798.38;5057164;28;1091;-54
2024/01/26 01:24:06;;;;;;;;;;;;;;;17.67;39.10;100787.38;5056830;28;1040;-53
2024/01/26 01:26:32;;;;;;;;;;;;;;;16.80;40.64;100791.06;5057237;28;1195;-52
2024/01/26 01:28:57;;;;;;;;;;;;;;;16.20;41.65;100799.78;5056101;28;879;-50
2024/01/26 01:31:23;;;;;;;;;;;;;;;17.06;40.11;100792.75;5057059;28;1975;-54
2024/01/26 01:33:48;;;;;;;;;;;;;;;16.63;40.76;100792.16;5056620;28;1126;-50
2024/01/26 01:36:14;;;;;;;;;;;;;;;16.14;42.01;100781.66;5034642;28;1231;-49
2024/01/26 01:38:39;;;;;;;;;;;;;;;15.91;41.96;100776.38;5057142;28;1130;-52
2024/01/26 01:41:05;;;;;;;;;;;;;;;17.52;39.12;100782.75;5052778;28;1135;-50
2024/01/26 01:43:30;;;;;;;;;;;;;;;16.49;41.11;100783.63;5038589;28;1199;-54
2024/01/26 01:45:56;;;;;;;;;;;;;;;16.22;41.87;100792.91;5056719;28;1094;-53
2024/01/26 01:48:21;;;;;;;;;;;;;;;17.07;40.08;100793.56;5056571;28;1187;-52
2024/01/26 01:50:47;;;;;;;;;;;;;;;16.17;41.76;100783.84;5056291;28;2000;-52
2024/01/26 01:53:12;;;;;;;;;;;;;;;17.80;38.88;100792.28;5056694;28;1083;-50
2024/01/26 01:55:38;;;;;;;;;;;;;;;16.83;40.40;100790.53;5056727;28;1036;-53
2024/01/26 01:58:04;;;;;;;;;;;;;;;16.26;41.58;100804.19;5038385;28;1118;-52
2024/01/26 02:00:31;;;;;;;;;;;;;;;16.07;42.23;100810.19;5056504;28;1083;-51
2024/01/26 02:02:57;;;;;;;;;;;;;;;17.64;38.76;100794.25;5056079;28;1258;-48
2024/01/26 02:05:22;;;;;;;;;;;;;;;16.54;41.21;100815.78;5056217;28;1044;-52
2024/01/26 02:07:50;;;;;;;;;;;;;;;16.71;41.09;100821.81;5056000;28;1055;-49
2024/01/26 02:10:16;;;;;;;;;;;;;;;17.13;39.84;100808.94;5056725;28;1979;-52
2024/01/26 02:12:41;;;;;;;;;;;;;;;16.38;41.29;100815.75;5055882;28;1056;-50
2024/01/26 02:15:08;;;;;;;;;;;;;;;16.11;41.95;100823.34;5055740;28;1068;-52
2024/01/26 02:17:34;;;;;;;;;;;;;;;17.06;40.10;100825.69;5055979;28;1158;-48
2024/01/26 02:20:00;;;;;;;;;;;;;;;16.20;41.84;100827.22;5055997;28;1099;-48
2024/01/26 02:22:25;;;;;;;;;;;;;;;15.98;42.40;100830.97;5056761;28;1071;-49
2024/01/26 02:24:51;;;;;;;;;;;;;;;17.60;38.85;100826.19;5056055;28;1099;-50
2024/01/26 02:27:18;;;;;;;;;;;;;;;16.37;41.49;100833.31;5055483;28;1102;-51
2024/01/26 02:29:43;;;;;;;;;;;;;;;17.65;39.04;100825.34;5055661;28;1989;-50
2024/01/26 02:32:09;;;;;;;;;;;;;;;17.27;39.50;100843.00;5056070;28;1152;-52
2024/01/26 02:34:34;;;;;;;;;;;;;;;16.48;41.13;100828.66;5056248;28;1028;-53
2024/01/26 02:37:00;;;;;;;;;;;;;;;16.56;41.08;100830.03;5055193;28;1120;-53
2024/01/26 02:39:27;;;;;;;;;;;;;;;17.57;38.73;100835.81;5034002;28;1156;-53
2024/01/26 02:41:53;;;;;;;;;;;;;;;16.49;41.22;100830.31;5055467;28;1067;-53
2024/01/26 02:44:19;;;;;;;;;;;;;;;16.20;41.49;100827.22;5052131;28;1219;-54
2024/01/26 02:46:45;;;;;;;;;;;;;;;16.31;41.40;100823.41;5055748;28;1162;-51
2024/01/26 02:49:10;;;;;;;;;;;;;;;17.52;38.96;100830.31;5055933;28;988;-51
2024/01/26 02:51:36;;;;;;;;;;;;;;;16.42;41.35;100830.59;5055460;28;1981;-55
2024/01/26 02:54:02;;;;;;;;;;;;;;;16.39;41.65;100836.59;5055678;28;1036;-56
2024/01/26 02:56:28;;;;;;;;;;;;;;;17.54;38.94;100832.78;5055451;28;1107;-56
2024/01/26 02:58:53;;;;;;;;;;;;;;;16.40;41.47;100837.44;5055932;28;1055;-56
2024/01/26 03:01:19;;;;;;;;;;;;;;;16.11;41.94;100854.34;5055700;28;1161;-50
2024/01/26 03:03:44;;;;;;;;;;;;;;;16.01;41.83;100844.16;5055270;28;1151;-53
2024/01/26 03:06:11;;;;;;;;;;;;;;;17.58;39.01;100848.44;5055563;28;1055;-55
2024/01/26 03:08:37;;;;;;;;;;;;;;;16.90;40.06;100863.34;5055658;28;1139;-51
2024/01/26 03:11:03;;;;;;;;;;;;;;;16.31;41.24;100864.56;5055566;28;1909;-50
2024/01/26 03:13:29;;;;;;;;;;;;;;;17.27;39.61;100864.16;5055974;28;1067;-54
2024/01/26 03:15:54;;;;;;;;;;;;;;;16.62;40.95;100855.59;5055270;28;1072;-54
2024/01/26 03:18:20;;;;;;;;;;;;;;;16.10;41.72;100860.09;5055217;28;1071;-54
2024/01/26 03:20:45;;;;;;;;;;;;;;;15.97;42.03;100862.25;5055559;28;1167;-53
2024/01/26 03:23:11;;;;;;;;;;;;;;;17.49;39.16;100876.78;5055760;28;960;-51
2024/01/26 03:25:37;;;;;;;;;;;;;;;16.64;40.80;100872.63;5054787;28;1040;-54
2024/01/26 03:28:02;;;;;;;;;;;;;;;16.17;41.81;100877.13;5054777;28;1086;-50
2024/01/26 03:30:28;;;;;;;;;;;;;;;17.19;39.61;100876.53;5067199;28;2689;-56
2024/01/26 03:32:54;;;;;;;;;;;;;;;16.21;41.72;100878.25;5052381;28;1950;-55
2024/01/26 03:35:20;;;;;;;;;;;;;;;15.92;42.23;100881.41;5050362;28;1943;-57
2024/01/26 03:37:45;;;;;;;;;;;;;;;17.52;38.91;100879.00;5052091;28;2078;-58
2024/01/26 03:40:11;;;;;;;;;;;;;;;16.54;41.10;100881.66;5049696;28;1833;-57
2024/01/26 03:42:37;;;;;;;;;;;;;;;16.09;41.82;100881.22;5054814;28;1840;-57
2024/01/26 03:45:02;;;;;;;;;;;;;;;17.22;39.52;100875.16;5046079;28;2119;-57
2024/01/26 03:47:28;;;;;;;;;;;;;;;16.42;41.38;100879.97;5056593;28;1134;-57
2024/01/26 03:49:53;;;;;;;;;;;;;;;17.21;39.59;100890.03;5057289;28;1898;-57
2024/01/26 03:52:19;;;;;;;;;;;;;;;17.61;38.49;100877.31;5057566;28;1356;-57
2024/01/26 03:54:44;;;;;;;;;;;;;;;16.53;41.08;100899.22;5040396;28;1064;-57
2024/01/26 03:57:10;;;;;;;;;;;;;;;16.19;41.43;100885.94;5058392;28;1115;-57
2024/01/26 03:59:35;;;;;;;;;;;;;;;17.02;39.89;100890.53;5057925;28;996;-57
2024/01/26 04:02:01;;;;;;;;;;;;;;;16.13;41.67;100889.72;5057836;28;1195;-57
2024/01/26 04:04:26;;;;;;;;;;;;;;;16.95;40.18;100895.47;5055894;28;1356;-57
2024/01/26 04:06:52;;;;;;;;;;;;;;;16.75;40.63;100899.00;5053318;28;1175;-57
2024/01/26 04:09:18;;;;;;;;;;;;;;;16.16;41.70;100908.41;5045772;28;1151;-56
2024/01/26 04:11:43;;;;;;;;;;;;;;;15.88;42.21;100902.25;5047332;28;1918;-57
2024/01/26 04:14:09;;;;;;;;;;;;;;;17.15;39.66;100907.59;5056686;28;1850;-57
2024/01/26 04:16:34;;;;;;;;;;;;;;;16.69;40.44;100906.41;5053486;28;981;-56
2024/01/26 04:18:59;;;;;;;;;;;;;;;16.03;42.04;100915.19;5057753;28;1297;-57
2024/01/26 04:21:25;;;;;;;;;;;;;;;16.11;41.97;100902.91;5057610;28;1384;-51
2024/01/26 04:23:50;;;;;;;;;;;;;;;17.07;39.71;100896.03;5056413;28;1274;-57
2024/01/26 04:26:17;;;;;;;;;;;;;;;16.15;41.58;100902.09;5046859;28;1048;-56
2024/01/26 04:28:42;;;;;;;;;;;;;;;15.87;42.07;100901.41;5055678;28;1025;-52
2024/01/26 04:31:08;;;;;;;;;;;;;;;17.12;39.63;100908.13;5057187;28;1918;-58
2024/01/26 04:33:33;;;;;;;;;;;;;;;16.49;41.19;100907.16;5057653;28;1176;-57
2024/01/26 04:35:59;;;;;;;;;;;;;;;18.06;37.79;100907.75;5057692;28;1098;-57
2024/01/26 04:38:25;;;;;;;;;;;;;;;17.64;38.58;100901.50;5055269;28;1110;-58
2024/01/26 04:40:51;;;;;;;;;;;;;;;16.63;40.62;100912.16;5057132;28;1227;-57
2024/01/26 04:43:16;;;;;;;;;;;;;;;16.20;41.55;100898.53;5058700;28;2428;-55
2024/01/26 04:45:42;;;;;;;;;;;;;;;16.03;41.79;100898.75;5066506;28;1171;-55
2024/01/26 04:48:07;;;;;;;;;;;;;;;17.31;39.19;100914.75;5948529;22;3615;-55
2024/01/26 04:50:33;;;;;;;;;;;;;;;16.37;41.31;100910.16;5021928;28;7091;-56
2024/01/26 04:52:58;;;;;;;;;;;;;;;16.01;42.04;100912.72;5019291;28;1692;-55
2024/01/26 04:55:33;;;;;;;;;;;;;;;17.08;39.71;100916.09;5027111;28;2105;-60
2024/01/26 04:57:58;;;;;;;;;;;;;;;17.10;39.48;100922.97;5018132;28;2106;-60
2024/01/26 05:00:24;;;;;;;;;;;;;;;16.27;41.31;100920.25;5017991;28;2198;-57
2024/01/26 05:02:49;;;;;;;;;;;;;;;15.91;42.03;100913.50;5020061;28;1841;-57
2024/01/26 05:05:15;;;;;;;;;;;;;;;17.45;38.78;100926.81;5017193;28;1005;-57
2024/01/26 05:07:40;;;;;;;;;;;;;;;16.30;41.24;100920.56;5028179;28;1277;-56
2024/01/26 05:10:06;;;;;;;;;;;;;;;16.62;40.74;100927.81;5031655;28;1918;-57
2024/01/26 05:12:32;;;;;;;;;;;;;;;17.28;39.17;100924.34;5017154;28;1296;-59
2024/01/26 05:14:59;;;;;;;;;;;;;;;16.27;41.43;100925.75;5025602;28;1155;-52
2024/01/26 05:17:24;;;;;;;;;;;;;;;16.75;40.68;100935.50;5020359;28;2782;-51
2024/01/26 05:19:50;;;;;;;;;;;;;;;17.90;37.96;100937.22;5011244;28;2951;-50
2024/01/26 05:22:15;;;;;;;;;;;;;;;17.04;39.85;100934.22;5030993;28;1380;-52
2024/01/26 05:24:41;;;;;;;;;;;;;;;16.50;41.00;100925.28;5025044;28;991;-54
2024/01/26 05:27:07;;;;;;;;;;;;;;;16.20;41.61;100925.97;5018734;28;1181;-53
2024/01/26 05:29:32;;;;;;;;;;;;;;;15.97;41.99;100932.72;5030140;28;1011;-55
2024/01/26 05:31:58;;;;;;;;;;;;;;;15.80;42.42;100930.97;5020213;28;1082;-54
2024/01/26 05:34:23;;;;;;;;;;;;;;;15.66;42.66;100938.00;5016598;28;1754;-54
2024/01/26 05:36:49;;;;;;;;;;;;;;;15.46;43.14;100939.50;5025492;28;1449;-54
2024/01/26 05:39:15;;;;;;;;;;;;;;;16.10;41.71;100947.88;5032186;28;1030;-54
2024/01/26 05:41:40;;;;;;;;;;;;;;;17.35;39.12;100945.22;5016698;28;1061;-54
2024/01/26 05:44:06;;;;;;;;;;;;;;;16.31;41.21;100944.13;5016888;28;997;-53
2024/01/26 05:46:32;;;;;;;;;;;;;;;15.83;42.32;100948.81;5030325;28;1148;-52
2024/01/26 05:48:58;;;;;;;;;;;;;;;15.54;43.00;100951.88;5020024;28;1314;-52
2024/01/26 05:51:23;;;;;;;;;;;;;;;15.43;43.02;100948.25;5023485;28;1902;-54
2024/01/26 05:53:50;;;;;;;;;;;;;;;16.98;39.79;100952.63;5035936;28;1047;-54
2024/01/26 05:56:15;;;;;;;;;;;;;;;17.27;38.89;100950.19;5027203;28;1358;-54
2024/01/26 05:58:41;;;;;;;;;;;;;;;16.19;41.20;100955.34;5027284;28;1464;-54
2024/01/26 06:01:06;;;;;;;;;;;;;;;15.79;42.17;100958.63;5014983;28;2927;-56
2024/01/26 06:03:32;;;;;;;;;;;;;;;15.57;42.59;100954.06;5023173;28;1368;-57
2024/01/26 06:05:58;;;;;;;;;;;;;;;15.94;42.20;100950.53;5016516;28;1147;-56
2024/01/26 06:08:24;;;;;;;;;;;;;;;17.31;39.21;100961.47;5017001;28;1100;-56
2024/01/26 06:10:49;;;;;;;;;;;;;;;16.84;39.96;100962.44;5015277;28;1989;-57
2024/01/26 06:13:15;;;;;;;;;;;;;;;16.10;41.47;100964.34;5021580;28;1452;-56
2024/01/26 06:15:41;;;;;;;;;;;;;;;15.78;42.21;100963.31;5022885;28;1265;-55
2024/01/26 06:18:06;;;;;;;;;;;;;;;15.48;43.09;100959.22;5023352;28;1044;-56
2024/01/26 06:20:32;;;;;;;;;;;;;;;15.84;42.49;100962.25;5021456;28;1097;-56
2024/01/26 06:22:58;;;;;;;;;;;;;;;17.28;39.22;100968.31;5016219;28;1004;-61
2024/01/26 06:25:23;;;;;;;;;;;;;;;16.64;40.23;100969.53;5024488;28;1073;-61
2024/01/26 06:27:49;;;;;;;;;;;;;;;16.01;41.80;100973.06;5020856;28;1218;-61
2024/01/26 06:30:15;;;;;;;;;;;;;;;15.63;42.52;100977.72;5016592;28;1981;-60
2024/01/26 06:32:42;;;;;;;;;;;;;;;15.78;42.41;100973.44;5015674;28;1130;-61
2024/01/26 06:35:11;;;;;;;;;;;;;;;17.27;39.38;100977.66;5024353;28;1044;-61
2024/01/26 06:37:36;;;;;;;;;;;;;;;16.70;40.34;100984.91;5032078;28;1079;-61
2024/01/26 06:40:02;;;;;;;;;;;;;;;16.03;41.53;100973.66;5022274;28;1316;-63
2024/01/26 06:42:29;;;;;;;;;;;;;;;15.72;42.40;100987.13;5021349;28;952;-63
2024/01/26 06:44:55;;;;;;;;;;;;;;;16.57;40.63;100986.25;5025172;28;1364;-62
2024/01/26 06:47:20;;;;;;;;;;;;;;;17.51;38.63;100995.56;5019518;28;1144;-61
2024/01/26 06:49:46;;;;;;;;;;;;;;;16.41;40.92;100992.75;5020447;28;1914;-62
2024/01/26 06:52:11;;;;;;;;;;;;;;;15.90;42.13;100987.81;5028393;28;1262;-62
2024/01/26 06:54:39;;;;;;;;;;;;;;;15.60;42.73;100986.47;5015982;28;1439;-62
2024/01/26 06:57:05;;;;;;;;;;;;;;;15.55;42.88;100992.72;5016694;28;1209;-62
2024/01/26 06:59:32;;;;;;;;;;;;;;;17.10;39.46;100988.91;5017741;28;1183;-61
2024/01/26 07:01:58;;;;;;;;;;;;;;;16.98;39.66;100979.28;5022502;28;1313;-60
2024/01/26 07:04:23;;;;;;;;;;;;;;;16.14;41.48;100976.44;5023971;28;1120;-60
2024/01/26 07:06:49;;;;;;;;;;;;;;;15.79;42.28;100975.09;5021830;28;1274;-61
2024/01/26 07:09:15;;;;;;;;;;;;;;;15.55;42.79;100970.78;5021559;28;1320;-61
2024/01/26 07:11:41;;;;;;;;;;;;;;;17.12;39.42;100972.16;5021716;28;1917;-63
2024/01/26 07:14:07;;;;;;;;;;;;;;;17.54;38.29;100975.75;5027136;28;1313;-61
2024/01/26 07:16:32;;;;;;;;;;;;;;;16.40;40.75;100980.97;5017747;28;1028;-61
2024/01/26 07:18:58;;;;;;;;;;;;;;;15.99;41.68;100977.16;5021509;28;1124;-60
2024/01/26 07:21:23;;;;;;;;;;;;;;;15.64;42.65;100979.38;5016724;28;1223;-60
2024/01/26 07:23:49;;;;;;;;;;;;;;;15.56;42.62;100979.84;5019526;28;1087;-59
2024/01/26 07:26:19;;;;;;;;;;;;;;;17.15;39.28;100999.06;5031622;28;1028;-59
2024/01/26 07:28:44;;;;;;;;;;;;;;;17.13;39.22;100995.78;5028807;28;1083;-60
2024/01/26 07:31:10;;;;;;;;;;;;;;;16.25;40.97;100994.59;5023198;28;1910;-60
2024/01/26 07:33:36;;;;;;;;;;;;;;;15.89;41.77;101003.44;5024457;28;1157;-56
2024/01/26 07:36:01;;;;;;;;;;;;;;;15.60;42.36;101011.13;5019216;28;1104;-59
2024/01/26 07:38:27;;;;;;;;;;;;;;;16.48;40.62;101006.25;5027776;28;1071;-63
2024/01/26 07:40:53;;;;;;;;;;;;;;;17.58;38.34;101004.34;5019103;28;1585;-60
2024/01/26 07:43:19;;;;;;;;;;;;;;;16.53;40.31;101006.28;5023342;28;1019;-59
2024/01/26 07:45:44;;;;;;;;;;;;;;;15.98;41.47;101001.03;5018886;28;1010;-62
2024/01/26 07:48:12;;;;;;;;;;;;;;;15.70;42.07;101005.72;5021132;28;1111;-64
2024/01/26 07:50:43;;;;;;;;;;;;;;;15.76;42.30;101008.53;5029897;28;1902;-62
2024/01/26 07:53:09;;;;;;;;;;;;;;;17.29;38.85;101018.63;5018736;28;1067;-59
2024/01/26 07:55:34;;;;;;;;;;;;;;;17.12;39.21;101018.03;5019069;28;912;-60
2024/01/26 07:58:00;;;;;;;;;;;;;;;16.24;41.08;101028.63;5032253;28;1194;-60
2024/01/26 08:00:25;;;;;;;;;;;;;;;15.86;41.78;101025.88;5022150;28;1133;-62
2024/01/26 08:02:51;;;;;;;;;;;;;;;15.62;42.20;101025.41;5028413;28;933;-59
2024/01/26 08:05:16;;;;;;;;;;;;;;;16.12;41.14;101012.38;5018862;28;1088;-60
2024/01/26 08:07:42;;;;;;;;;;;;;;;17.45;38.49;101028.53;5017813;28;1013;-59
2024/01/26 08:10:09;;;;;;;;;;;;;;;16.80;39.80;101016.25;5024162;28;1914;-60
2024/01/26 08:12:35;;;;;;;;;;;;;;;16.07;41.11;101018.66;5021483;28;1123;-64
2024/01/26 08:15:00;;;;;;;;;;;;;;;15.75;41.75;101018.63;5022896;28;1140;-60
2024/01/26 08:17:26;;;;;;;;;;;;;;;15.53;42.64;101026.97;5030348;28;1148;-61
2024/01/26 08:19:52;;;;;;;;;;;;;;;16.95;39.61;101026.50;5029154;28;1013;-59
2024/01/26 08:22:17;;;;;;;;;;;;;;;17.66;38.08;101030.50;5024494;28;1136;-61
2024/01/26 08:24:43;;;;;;;;;;;;;;;16.50;40.23;101031.53;5024799;28;1357;-61
2024/01/26 08:27:08;;;;;;;;;;;;;;;16.03;41.18;101020.28;5021126;28;1108;-63
2024/01/26 08:29:34;;;;;;;;;;;;;;;15.71;42.03;101034.81;5036835;28;1106;-61
2024/01/26 08:31:59;;;;;;;;;;;;;;;16.24;40.94;101036.84;5023898;28;1910;-58
2024/01/26 08:34:25;;;;;;;;;;;;;;;17.56;38.19;101029.38;5021689;28;1155;-59
2024/01/26 08:36:50;;;;;;;;;;;;;;;16.77;39.70;101037.69;5022667;28;953;-60
2024/01/26 08:39:16;;;;;;;;;;;;;;;16.17;40.92;101044.50;5029706;28;1116;-59
2024/01/26 08:41:43;;;;;;;;;;;;;;;15.84;41.67;101038.22;5032421;28;1505;-60
2024/01/26 08:44:11;;;;;;;;;;;;;;;15.71;42.17;101036.69;5018157;28;1163;-59
2024/01/26 08:46:38;;;;;;;;;;;;;;;16.47;40.30;101045.78;5018349;28;1100;-63
2024/01/26 08:49:03;;;;;;;;;;;;;;;17.65;37.91;101045.34;5017663;28;1198;-62
2024/01/26 08:51:30;;;;;;;;;;;;;;;16.85;39.59;101044.56;5019492;28;1910;-62
2024/01/26 08:53:55;;;;;;;;;;;;;;;16.19;41.08;101042.31;5022513;28;1163;-62
2024/01/26 08:56:21;;;;;;;;;;;;;;;15.87;41.74;101044.00;5024830;28;1536;-62
2024/01/26 08:58:46;;;;;;;;;;;;;;;15.62;42.16;101046.50;5031357;28;928;-63
2024/01/26 09:01:12;;;;;;;;;;;;;;;17.15;39.07;101058.72;5031043;28;1111;-63
2024/01/26 09:03:37;;;;;;;;;;;;;;;17.34;38.42;101054.34;5018462;28;1348;-59
2024/01/26 09:06:03;;;;;;;;;;;;;;;16.39;40.58;101064.38;5017516;28;1059;-60
2024/01/26 09:08:28;;;;;;;;;;;;;;;15.96;41.40;101065.47;5022653;28;1303;-62
2024/01/26 09:10:54;;;;;;;;;;;;;;;15.78;41.85;101067.50;5023637;28;1973;-61
2024/01/26 09:13:20;;;;;;;;;;;;;;;16.37;40.96;101074.00;5017681;28;1075;-62
2024/01/26 09:15:46;;;;;;;;;;;;;;;17.59;38.35;101072.81;5020408;28;1143;-61
2024/01/26 09:18:12;;;;;;;;;;;;;;;16.90;39.44;101085.00;5028166;28;1341;-61
2024/01/26 09:20:37;;;;;;;;;;;;;;;16.18;41.13;101081.81;5017036;28;1298;-61
2024/01/26 09:23:03;;;;;;;;;;;;;;;15.87;41.72;101079.66;5028925;28;1107;-60
2024/01/26 09:25:28;;;;;;;;;;;;;;;15.66;42.05;101081.34;5017789;28;1011;-61
2024/01/26 09:27:54;;;;;;;;;;;;;;;16.53;40.70;101083.13;5026289;28;1140;-60
2024/01/26 09:30:19;;;;;;;;;;;;;;;17.68;38.08;101078.59;5017362;28;1913;-59
2024/01/26 09:32:45;;;;;;;;;;;;;;;16.63;40.09;101083.19;5018848;28;1012;-57
2024/01/26 09:35:12;;;;;;;;;;;;;;;16.11;41.10;101086.72;5021663;28;1325;-61
2024/01/26 09:37:37;;;;;;;;;;;;;;;15.80;42.06;101089.19;5030785;28;1401;-60
2024/01/26 09:40:03;;;;;;;;;;;;;;;15.56;42.33;101089.50;5035103;28;1304;-61
2024/01/26 09:42:28;;;;;;;;;;;;;;;16.24;41.22;101094.47;5027275;28;1020;-58
2024/01/26 09:44:55;;;;;;;;;;;;;;;17.50;38.20;101107.47;5021408;28;1054;-60
2024/01/26 09:47:21;;;;;;;;;;;;;;;16.95;39.39;101117.16;5018745;28;1120;-61
2024/01/26 09:49:54;;;;;;;;;;;;;;;16.23;41.01;101107.38;5029505;28;1906;-61
2024/01/26 09:52:21;;;;;;;;;;;;;;;15.87;41.56;101114.47;5031694;28;1028;-58
2024/01/26 09:54:47;;;;;;;;;;;;;;;15.65;42.33;101109.84;5023290;28;1387;-55
2024/01/26 09:57:13;;;;;;;;;;;;;;;16.67;40.08;101110.94;5023562;28;1326;-58
2024/01/26 09:59:38;;;;;;;;;;;;;;;17.73;38.11;101125.38;5023793;28;1227;-58
2024/01/26 10:02:04;;;;;;;;;;;;;;;16.77;39.78;101125.56;5026576;28;1033;-58
2024/01/26 10:04:29;;;;;;;;;;;;;;;16.21;40.94;101120.50;5018750;28;1056;-60
2024/01/26 10:06:55;;;;;;;;;;;;;;;15.84;41.82;101125.97;5023594;28;1111;-58
2024/01/26 10:09:20;;;;;;;;;;;;;;;15.62;42.26;101124.06;5016851;28;1080;-59
2024/01/26 10:11:46;;;;;;;;;;;;;;;16.63;40.21;101132.59;5016480;28;1981;-57
2024/01/26 10:14:21;;;;;;;;;;;;;;;17.69;38.03;101143.50;5020554;28;1024;-58
2024/01/26 10:17:00;;;;;;;;;;;;;;;16.96;39.41;101129.78;5036012;28;1158;-61
2024/01/26 10:19:26;;;;;;;;;;;;;;;16.30;40.91;101133.75;5019443;28;1200;-61
2024/01/26 10:21:52;;;;;;;;;;;;;;;15.97;41.53;101146.66;5019498;28;973;-58
2024/01/26 10:24:18;;;;;;;;;;;;;;;15.69;42.20;101152.09;5026229;28;1270;-58
2024/01/26 10:26:43;;;;;;;;;;;;;;;15.91;41.99;101146.59;5020590;28;1305;-62
2024/01/26 10:29:10;;;;;;;;;;;;;;;17.34;39.08;101147.81;5019726;28;1195;-60
2024/01/26 10:31:42;;;;;;;;;;;;;;;17.01;39.30;101147.16;5023885;28;1910;-59
2024/01/26 10:34:09;;;;;;;;;;;;;;;16.22;40.87;101141.38;5026218;28;1841;-60
2024/01/26 10:36:35;;;;;;;;;;;;;;;15.86;42.09;101143.00;5022062;28;964;-61
2024/01/26 10:39:01;;;;;;;;;;;;;;;15.72;42.26;101146.13;5030123;28;1687;-61
2024/01/26 10:41:26;;;;;;;;;;;;;;;17.26;39.17;101145.59;5021364;28;1053;-62
2024/01/26 10:43:55;;;;;;;;;;;;;;;17.07;39.18;101137.00;5025041;28;1434;-62
2024/01/26 10:46:20;;;;;;;;;;;;;;;16.23;41.24;101147.72;5029261;28;890;-60
2024/01/26 10:48:46;;;;;;;;;;;;;;;15.94;41.73;101145.25;5015330;28;1121;-59
2024/01/26 10:51:11;;;;;;;;;;;;;;;15.67;42.62;101151.56;5027790;28;1974;-59
2024/01/26 10:53:38;;;;;;;;;;;;;;;16.78;40.13;101151.09;5021373;28;1269;-61
2024/01/26 10:56:04;;;;;;;;;;;;;;;17.84;38.16;101150.13;5021815;28;1071;-63
2024/01/26 10:58:29;;;;;;;;;;;;;;;16.71;40.06;101151.31;5026629;28;1108;-61
2024/01/26 11:00:55;;;;;;;;;;;;;;;16.11;41.71;101147.06;5023613;28;1286;-61
2024/01/26 11:03:20;;;;;;;;;;;;;;;15.87;41.93;101150.13;5033445;28;1362;-60
2024/01/26 11:05:50;;;;;;;;;;;;;;;15.57;42.87;101149.53;5039274;28;1284;-56
2024/01/26 11:08:17;;;;;;;;;;;;;;;16.86;39.98;101155.28;5028464;28;1079;-59
2024/01/26 11:10:43;;;;;;;;;;;;;;;17.77;38.15;101155.91;5024556;28;1974;-58
2024/01/26 11:13:13;;;;;;;;;;;;;;;16.62;40.59;101155.69;5018059;28;1257;-58
2024/01/26 11:15:42;;;;;;;;;;;;;;;16.12;41.50;101154.19;5029075;28;1079;-57
2024/01/26 11:18:07;;;;;;;;;;;;;;;15.78;42.55;101159.88;5023677;28;1240;-60
2024/01/26 11:20:34;;;;;;;;;;;;;;;15.77;42.62;101155.47;5020375;28;1128;-57
2024/01/26 11:23:11;;;;;;;;;;;;;;;17.31;39.33;101156.59;5021711;28;1289;-60
2024/01/26 11:25:37;;;;;;;;;;;;;;;16.89;40.10;101157.53;5023188;28;1027;-59
2024/01/26 11:28:03;;;;;;;;;;;;;;;16.15;41.71;101153.69;5032447;28;1076;-59
2024/01/26 11:30:28;;;;;;;;;;;;;;;15.91;41.93;101154.00;5019445;28;1972;-60
2024/01/26 11:32:54;;;;;;;;;;;;;;;15.62;42.72;101167.13;5031591;28;1067;-61
2024/01/26 11:35:20;;;;;;;;;;;;;;;17.05;39.71;101163.91;5028147;28;1067;-60
2024/01/26 11:37:46;;;;;;;;;;;;;;;17.30;38.95;101165.94;5033103;28;1028;-60
2024/01/26 11:40:12;;;;;;;;;;;;;;;16.33;41.10;101166.19;5023628;28;1043;-60
2024/01/26 11:42:37;;;;;;;;;;;;;;;15.95;42.19;101171.59;5028046;28;1273;-61
2024/01/26 11:45:12;;;;;;;;;;;;;;;15.64;42.88;101171.25;5018972;28;1017;-61
2024/01/26 11:47:40;;;;;;;;;;;;;;;16.01;41.93;101178.78;5019217;28;1079;-63
2024/01/26 11:50:07;;;;;;;;;;;;;;;17.41;39.13;101170.38;5018928;28;1962;-62
2024/01/26 11:52:34;;;;;;;;;;;;;;;16.88;40.03;101172.31;5018837;28;1055;-61
2024/01/26 11:55:00;;;;;;;;;;;;;;;16.16;41.67;101177.25;5037375;28;1140;-60
2024/01/26 11:57:25;;;;;;;;;;;;;;;15.76;42.36;101173.84;5027401;28;1078;-60
2024/01/26 11:59:51;;;;;;;;;;;;;;;15.51;43.09;101167.00;5023116;28;1063;-61
2024/01/26 12:02:16;;;;;;;;;;;;;;;16.70;40.54;101174.38;5019192;28;1159;-62
2024/01/26 12:04:42;;;;;;;;;;;;;;;17.55;38.89;101181.69;5018799;28;1060;-60
2024/01/26 12:07:08;;;;;;;;;;;;;;;16.49;40.79;101178.91;5018954;28;1055;-60
2024/01/26 12:09:34;;;;;;;;;;;;;;;16.02;41.93;101185.94;5018750;28;1164;-61
2024/01/26 12:12:00;;;;;;;;;;;;;;;15.67;42.90;101187.19;5017865;28;1910;-59
2024/01/26 12:14:27;;;;;;;;;;;;;;;15.73;42.67;101186.16;5030463;28;997;-61
2024/01/26 12:16:52;;;;;;;;;;;;;;;17.28;39.37;101179.13;5028864;28;1044;-62
2024/01/26 12:19:18;;;;;;;;;;;;;;;17.01;39.69;101180.13;5020921;28;1050;-58
2024/01/26 12:21:43;;;;;;;;;;;;;;;16.21;41.72;101180.06;5018859;28;1051;-60
2024/01/26 12:24:12;;;;;;;;;;;;;;;15.81;42.37;101181.31;5030149;28;1483;-61
2024/01/26 12:26:38;;;;;;;;;;;;;;;15.64;42.72;101195.94;5029220;28;1120;-61
2024/01/26 12:29:04;;;;;;;;;;;;;;;17.10;40.00;101194.16;5023246;28;1128;-62
2024/01/26 12:31:32;;;;;;;;;;;;;;;17.01;39.94;101193.84;5027764;28;1910;-61
2024/01/26 12:33:58;;;;;;;;;;;;;;;16.21;41.61;101196.53;5022390;28;1108;-61
2024/01/26 12:36:31;;;;;;;;;;;;;;;15.82;42.65;101202.19;5036971;28;1107;-59
2024/01/26 12:39:00;;;;;;;;;;;;;;;15.53;43.27;101205.13;5022675;28;1240;-59
2024/01/26 12:41:29;;;;;;;;;;;;;;;17.00;40.03;101191.34;5024744;28;1008;-59